createdAt,value
2018-10-19T00:01:00.312Z,8.97
2018-10-19T00:03:33.271Z,9.00
2018-10-19T00:06:05.948Z,8.13
2018-10-19T00:08:38.681Z,9.70
2018-10-19T00:11:11.596Z,8.90
2018-10-19T00:13:43.778Z,8.73
2018-10-19T00:16:16.420Z,8.43
2018-10-19T00:18:49.569Z,8.00
2018-10-19T00:21:22.301Z,8.30
2018-10-19T00:23:55.190Z,9.00
2018-10-19T00:26:27.731Z,8.70
2018-10-19T00:29:00.625Z,8.43
2018-10-19T00:31:33.509Z,8.67
2018-10-19T00:34:06.246Z,8.30
2018-10-19T00:36:38.789Z,8.80
2018-10-19T00:39:13.347Z,8.30
2018-10-19T00:41:45.922Z,8.07
2018-10-19T00:44:19.365Z,8.33
2018-10-19T00:46:52.511Z,8.60
2018-10-19T00:49:25.708Z,8.23
2018-10-19T00:51:58.269Z,9.10
2018-10-19T00:54:31.517Z,8.83
2018-10-19T00:57:04.005Z,8.80
2018-10-19T00:59:36.498Z,8.67
2018-10-19T01:02:09.007Z,9.10
2018-10-19T01:04:41.291Z,9.00
2018-10-19T01:07:14.028Z,8.33
2018-10-19T01:09:46.510Z,8.87
2018-10-19T01:12:19.110Z,8.87
2018-10-19T01:14:51.614Z,9.27
2018-10-19T01:17:24.081Z,10.07
2018-10-19T01:19:56.277Z,11.27
2018-10-19T01:22:28.876Z,9.67
2018-10-19T01:25:01.488Z,10.57
2018-10-19T01:27:33.709Z,9.30
2018-10-19T01:30:06.290Z,9.80
2018-10-19T01:32:38.870Z,8.77
2018-10-19T01:35:13.161Z,9.77
2018-10-19T01:37:45.831Z,9.57
2018-10-19T01:40:18.180Z,10.33
2018-10-19T01:42:50.552Z,10.43
2018-10-19T01:45:23.593Z,11.43
2018-10-19T01:47:56.527Z,10.50
2018-10-19T01:50:30.320Z,9.60
2018-10-19T01:53:03.019Z,9.37
2018-10-19T01:55:35.903Z,9.60
2018-10-19T01:58:08.480Z,9.43
2018-10-19T02:00:41.586Z,9.90
2018-10-19T02:03:14.033Z,9.57
2018-10-19T02:05:46.969Z,10.00
2018-10-19T02:08:19.794Z,9.63
2018-10-19T02:10:52.519Z,10.80
2018-10-19T02:13:25.091Z,10.00
2018-10-19T02:15:57.730Z,10.90
2018-10-19T02:18:30.609Z,11.03
2018-10-19T02:21:04.000Z,11.10
2018-10-19T02:23:36.318Z,11.70
2018-10-19T02:26:09.622Z,12.73
2018-10-19T02:28:42.296Z,12.50
2018-10-19T02:31:15.029Z,12.70
2018-10-19T02:33:47.422Z,13.07
2018-10-19T02:36:19.919Z,14.47
2018-10-19T02:38:52.525Z,12.77
2018-10-19T02:41:24.903Z,14.13
2018-10-19T02:43:57.913Z,14.37
2018-10-19T02:46:30.648Z,14.10
2018-10-19T02:49:03.434Z,15.10
2018-10-19T02:51:36.486Z,16.57
2018-10-19T02:54:09.708Z,16.37
2018-10-19T02:56:41.938Z,16.03
2018-10-19T02:59:14.321Z,16.60
2018-10-19T03:01:46.818Z,18.10
2018-10-19T03:04:19.438Z,17.57
2018-10-19T03:06:51.785Z,16.90
2018-10-19T03:09:24.155Z,18.20
2018-10-19T03:11:56.892Z,17.30
2018-10-19T03:14:29.747Z,18.30
2018-10-19T03:17:02.357Z,18.60
2018-10-19T03:19:34.982Z,20.70
2018-10-19T03:22:07.862Z,20.47
2018-10-19T03:24:40.734Z,21.27
2018-10-19T03:27:13.648Z,23.50
2018-10-19T03:29:46.104Z,24.93
2018-10-19T03:32:19.372Z,21.27
2018-10-19T03:34:52.309Z,20.17
2018-10-19T03:37:24.667Z,17.67
2018-10-19T03:39:57.329Z,18.30
2018-10-19T03:42:30.280Z,17.53
2018-10-19T03:45:02.439Z,14.27
2018-10-19T03:47:35.290Z,15.30
2018-10-19T03:50:08.693Z,15.17
2018-10-19T03:52:41.801Z,13.83
2018-10-19T03:55:14.980Z,16.20
2018-10-19T03:57:47.464Z,14.83
2018-10-19T04:00:19.939Z,15.50
2018-10-19T04:02:52.742Z,16.23
2018-10-19T04:05:25.799Z,15.17
2018-10-19T04:07:58.494Z,14.73
2018-10-19T04:10:30.724Z,14.57
2018-10-19T04:13:03.242Z,14.87
2018-10-19T04:15:35.526Z,15.30
2018-10-19T04:18:08.142Z,14.83
2018-10-19T04:20:40.698Z,16.70
2018-10-19T04:23:13.208Z,15.13
2018-10-19T04:25:45.169Z,14.67
2018-10-19T04:28:17.865Z,15.50
2018-10-19T04:30:50.362Z,16.20
2018-10-19T04:33:22.725Z,15.80
2018-10-19T04:35:55.209Z,16.40
2018-10-19T04:38:27.978Z,17.37
2018-10-19T04:41:00.721Z,16.73
2018-10-19T04:43:33.674Z,15.90
2018-10-19T04:46:06.368Z,15.70
2018-10-19T04:48:39.267Z,17.20
2018-10-19T04:51:11.497Z,18.83
2018-10-19T04:53:44.396Z,18.17
2018-10-19T04:56:17.469Z,18.03
2018-10-19T04:58:49.931Z,18.97
2018-10-19T05:01:22.200Z,17.70
2018-10-19T05:03:54.946Z,19.43
2018-10-19T05:06:27.023Z,18.63
2018-10-19T05:08:59.488Z,19.13
2018-10-19T05:11:32.269Z,18.00
2018-10-19T05:14:04.535Z,17.17
2018-10-19T05:16:37.463Z,17.60
2018-10-19T05:19:10.529Z,18.43
2018-10-19T05:21:43.127Z,17.53
2018-10-19T05:24:15.517Z,18.90
2018-10-19T05:26:47.977Z,18.37
2018-10-19T05:29:20.720Z,19.37
2018-10-19T05:31:53.420Z,20.40
2018-10-19T05:34:26.242Z,20.27
2018-10-19T05:36:58.776Z,20.57
2018-10-19T05:39:31.270Z,19.40
2018-10-19T05:42:03.902Z,21.00
2018-10-19T05:44:36.587Z,20.60
2018-10-19T05:47:09.397Z,22.50
2018-10-19T05:49:42.208Z,22.07
2018-10-19T05:52:14.855Z,21.63
2018-10-19T05:54:47.419Z,23.33
2018-10-19T05:57:19.574Z,23.13
2018-10-19T05:59:52.644Z,22.07
2018-10-19T06:02:25.471Z,23.43
2018-10-19T06:04:57.901Z,22.30
2018-10-19T06:07:30.727Z,22.73
2018-10-19T06:10:03.319Z,23.10
2018-10-19T06:12:35.645Z,23.65
2018-10-19T06:15:08.462Z,24.70
2018-10-19T06:17:40.956Z,23.67
2018-10-19T06:20:13.807Z,23.10
2018-10-19T06:22:46.906Z,25.70
2018-10-19T06:25:19.088Z,23.00
2018-10-19T06:27:51.793Z,22.48
2018-10-19T06:30:24.430Z,23.67
2018-10-19T06:32:56.880Z,26.53
2018-10-19T06:35:29.398Z,25.00
2018-10-19T06:38:01.629Z,25.80
2018-10-19T06:40:34.164Z,23.90
2018-10-19T06:43:06.377Z,23.63
2018-10-19T06:45:38.671Z,26.97
2018-10-19T06:48:11.503Z,26.03
2018-10-19T06:50:43.957Z,24.77
2018-10-19T06:53:16.628Z,25.32
2018-10-19T06:55:49.439Z,24.85
2018-10-19T06:58:22.077Z,25.83
2018-10-19T07:00:54.769Z,26.87
2018-10-19T07:03:27.310Z,27.10
2018-10-19T07:06:00.012Z,27.13
2018-10-19T07:08:32.676Z,27.32
2018-10-19T07:11:05.766Z,26.05
2018-10-19T07:13:38.140Z,26.33
2018-10-19T07:16:10.633Z,28.87
2018-10-19T07:18:42.980Z,24.60
2018-10-19T07:21:15.615Z,29.23
2018-10-19T07:23:48.507Z,27.65
2018-10-19T07:26:21.255Z,28.77
2018-10-19T07:28:54.499Z,28.57
2018-10-19T07:31:27.141Z,26.95
2018-10-19T07:33:59.698Z,30.23
2018-10-19T07:36:32.580Z,23.60
2018-10-19T07:39:06.020Z,26.50
2018-10-19T07:41:38.523Z,28.07
2018-10-19T07:44:11.203Z,26.50
2018-10-19T07:46:43.748Z,30.52
2018-10-19T07:49:16.382Z,31.35
2018-10-19T07:51:48.579Z,31.62
2018-10-19T07:54:21.168Z,29.92
2018-10-19T07:56:53.618Z,31.97
2018-10-19T07:59:26.274Z,33.90
2018-10-19T08:01:58.984Z,28.25
2018-10-19T08:04:31.366Z,33.40
2018-10-19T08:07:04.056Z,28.57
2018-10-19T08:09:36.667Z,33.15
2018-10-19T08:12:09.026Z,31.45
2018-10-19T08:14:41.543Z,31.77
2018-10-19T08:17:14.104Z,28.90
2018-10-19T08:19:47.802Z,30.37
2018-10-19T08:22:20.229Z,33.75
2018-10-19T08:24:54.355Z,29.92
2018-10-19T08:27:27.087Z,31.45
2018-10-19T08:29:59.778Z,33.25
2018-10-19T08:32:32.273Z,31.50
2018-10-19T08:35:04.965Z,32.78
2018-10-19T08:37:37.468Z,29.67
2018-10-19T08:40:10.402Z,33.70
2018-10-19T08:42:43.150Z,37.05
2018-10-19T08:45:15.598Z,37.05
2018-10-19T08:47:48.247Z,33.28
2018-10-19T08:50:20.708Z,34.55
2018-10-19T08:52:53.486Z,36.10
2018-10-19T08:55:26.124Z,33.08
2018-10-19T08:57:58.963Z,31.27
2018-10-19T09:00:31.727Z,30.40
2018-10-19T09:03:04.390Z,31.10
2018-10-19T09:05:36.705Z,34.45
2018-10-19T09:08:09.261Z,34.15
2018-10-19T09:10:41.688Z,34.73
2018-10-19T09:13:13.905Z,36.23
2018-10-19T09:15:46.577Z,36.90
2018-10-19T09:18:19.120Z,32.30
2018-10-19T09:20:52.023Z,35.63
2018-10-19T09:23:24.859Z,31.75
2018-10-19T09:25:57.226Z,34.53
2018-10-19T09:28:29.705Z,36.88
2018-10-19T09:31:02.123Z,34.70
2018-10-19T09:33:34.654Z,36.63
2018-10-19T09:36:07.159Z,35.90
2018-10-19T09:38:39.616Z,33.20
2018-10-19T09:41:11.935Z,35.45
2018-10-19T09:43:44.567Z,38.10
2018-10-19T09:46:16.890Z,37.25
2018-10-19T09:48:49.362Z,36.00
2018-10-19T09:51:22.134Z,33.15
2018-10-19T09:53:54.774Z,36.15
2018-10-19T09:56:27.070Z,35.60
2018-10-19T09:58:59.526Z,35.88
2018-10-19T10:01:32.457Z,37.05
2018-10-19T10:04:04.853Z,32.15
2018-10-19T10:06:37.336Z,37.30
2018-10-19T10:09:13.889Z,35.50
2018-10-19T10:11:46.591Z,31.10
2018-10-19T10:14:19.057Z,33.48
2018-10-19T10:16:51.530Z,36.85
2018-10-19T10:19:24.490Z,38.15
2018-10-19T10:21:56.943Z,37.25
2018-10-19T10:24:29.377Z,35.33
2018-10-19T10:27:02.150Z,34.00
2018-10-19T10:29:34.527Z,34.48
2018-10-19T10:32:06.873Z,34.40
2018-10-19T10:34:39.567Z,37.55
2018-10-19T10:37:12.160Z,34.20
2018-10-19T10:39:44.828Z,36.77
2018-10-19T10:42:17.134Z,32.50
2018-10-19T10:44:49.674Z,33.67
2018-10-19T10:47:22.277Z,35.65
2018-10-19T10:49:54.669Z,30.88
2018-10-19T10:52:27.393Z,45.65
2018-10-19T10:54:59.778Z,50.20
2018-10-19T10:57:32.229Z,61.20
2018-10-19T11:00:04.726Z,60.12
2018-10-19T11:02:37.368Z,58.42
2018-10-19T11:05:10.157Z,75.45
2018-10-19T11:07:42.859Z,96.50
2018-10-19T11:10:15.577Z,81.95
2018-10-19T11:12:47.869Z,50.38
2018-10-19T11:15:20.841Z,72.20
2018-10-19T11:17:53.152Z,57.33
2018-10-19T11:20:26.636Z,56.88
2018-10-19T11:22:59.612Z,74.20
2018-10-19T11:25:32.160Z,53.00
2018-10-19T11:28:04.585Z,64.97
2018-10-19T11:30:37.219Z,92.65
2018-10-19T11:33:09.819Z,118.15
2018-10-19T11:35:42.423Z,55.10
2018-10-19T11:38:14.954Z,86.50
2018-10-19T11:40:47.307Z,112.75
2018-10-19T11:43:19.699Z,93.12
2018-10-19T11:45:52.505Z,81.60
2018-10-19T11:48:25.014Z,53.70
2018-10-19T11:50:57.929Z,87.85
2018-10-19T11:53:30.371Z,57.45
2018-10-19T11:56:02.642Z,46.55
2018-10-19T11:58:35.026Z,46.90
2018-10-19T12:01:07.386Z,51.90
2018-10-19T12:03:39.569Z,54.03
2018-10-19T12:06:12.398Z,48.92
2018-10-19T12:08:44.480Z,64.50
2018-10-19T12:11:16.980Z,46.15
2018-10-19T12:13:49.386Z,81.97
2018-10-19T12:16:21.876Z,94.35
2018-10-19T12:18:54.163Z,63.90
2018-10-19T12:21:26.711Z,81.20
2018-10-19T12:23:59.421Z,50.00
2018-10-19T12:26:32.136Z,50.88
2018-10-19T12:29:04.800Z,61.68
2018-10-19T12:31:37.336Z,44.23
2018-10-19T12:34:09.610Z,63.92
2018-10-19T12:36:43.355Z,60.00
2018-10-19T12:39:15.950Z,58.42
2018-10-19T12:41:48.237Z,42.93
2018-10-19T12:44:21.191Z,83.95
2018-10-19T12:47:03.141Z,53.95
2018-10-19T12:49:36.007Z,69.82
2018-10-19T12:52:08.620Z,46.40
2018-10-19T12:54:41.295Z,72.17
2018-10-19T12:57:13.858Z,78.95
2018-10-19T12:59:46.532Z,64.47
2018-10-19T13:02:19.295Z,45.15
2018-10-19T13:04:52.743Z,104.45
2018-10-19T13:07:25.339Z,73.97
2018-10-19T13:09:57.981Z,62.17
2018-10-19T13:12:30.458Z,61.77
2018-10-19T13:15:03.742Z,58.78
2018-10-19T13:17:36.434Z,50.17
2018-10-19T13:20:09.008Z,94.37
2018-10-19T13:22:41.079Z,43.00
2018-10-19T13:25:13.428Z,77.67
2018-10-19T13:27:45.757Z,58.05
2018-10-19T13:30:18.238Z,54.63
2018-10-19T13:32:50.892Z,76.22
2018-10-19T13:35:23.121Z,59.38
2018-10-19T13:37:57.777Z,91.20
2018-10-19T13:40:30.103Z,52.10
2018-10-19T13:43:02.365Z,45.88
2018-10-19T13:45:35.009Z,74.20
2018-10-19T13:48:07.806Z,102.30
2018-10-19T13:50:40.361Z,96.17
2018-10-19T13:53:12.818Z,45.50
2018-10-19T13:55:45.135Z,62.83
2018-10-19T13:58:18.133Z,84.40
2018-10-19T14:00:50.559Z,33.75
2018-10-19T14:03:23.216Z,73.97
2018-10-19T14:05:56.152Z,63.00
2018-10-19T14:08:28.824Z,59.80
2018-10-19T14:11:01.556Z,65.42
2018-10-19T14:13:33.784Z,83.37
2018-10-19T14:16:06.260Z,90.75
2018-10-19T14:18:38.516Z,47.05
2018-10-19T14:21:11.452Z,81.35
2018-10-19T14:23:43.705Z,39.00
2018-10-19T14:26:16.224Z,55.25
2018-10-19T14:28:49.012Z,37.75
2018-10-19T14:31:21.445Z,45.92
2018-10-19T14:33:53.894Z,43.50
2018-10-19T14:36:26.115Z,57.80
2018-10-19T14:38:58.694Z,79.95
2018-10-19T14:41:31.159Z,73.60
2018-10-19T14:44:03.667Z,62.43
2018-10-19T14:46:36.165Z,63.10
2018-10-19T14:49:11.441Z,51.20
2018-10-19T14:51:44.007Z,36.77
2018-10-19T14:54:16.593Z,55.33
2018-10-19T14:56:49.243Z,39.63
2018-10-19T14:59:21.397Z,61.23
2018-10-19T15:01:54.372Z,67.87
2018-10-19T15:04:26.687Z,43.28
2018-10-19T15:06:59.038Z,74.15
2018-10-19T15:09:32.169Z,31.20
2018-10-19T15:12:04.540Z,35.35
2018-10-19T15:14:37.082Z,31.77
2018-10-19T15:17:09.583Z,51.68
2018-10-19T15:19:42.168Z,42.20
2018-10-19T15:22:15.330Z,54.30
2018-10-19T15:24:48.050Z,48.58
2018-10-19T15:27:20.548Z,56.20
2018-10-19T15:29:53.382Z,49.53
2018-10-19T15:32:25.701Z,30.62
2018-10-19T15:34:57.964Z,43.55
2018-10-19T15:37:30.784Z,28.77
2018-10-19T15:40:03.660Z,30.90
2018-10-19T15:42:35.982Z,49.90
2018-10-19T15:45:09.457Z,37.80
2018-10-19T15:47:42.532Z,31.68
2018-10-19T15:50:15.222Z,36.90
2018-10-19T15:52:47.607Z,38.63
2018-10-19T15:55:20.341Z,39.50
2018-10-19T15:57:52.633Z,47.50
2018-10-19T16:00:25.514Z,39.30
2018-10-19T16:02:58.562Z,54.23
2018-10-19T16:05:31.041Z,42.60
2018-10-19T16:08:03.823Z,38.23
2018-10-19T16:10:36.638Z,31.27
2018-10-19T16:13:09.023Z,32.23
2018-10-19T16:15:41.702Z,41.42
2018-10-19T16:18:14.207Z,56.13
2018-10-19T16:20:46.835Z,38.08
2018-10-19T16:23:19.704Z,51.42
2018-10-19T16:25:52.284Z,60.38
2018-10-19T16:28:24.769Z,39.48
2018-10-19T16:30:57.360Z,39.63
2018-10-19T16:33:29.834Z,42.27
2018-10-19T16:36:03.707Z,33.80
2018-10-19T16:38:36.121Z,52.08
2018-10-19T16:41:08.602Z,51.05
2018-10-19T16:43:41.445Z,40.30
2018-10-19T16:46:14.908Z,40.90
2018-10-19T16:48:47.589Z,34.70
2018-10-19T16:51:19.889Z,39.35
2018-10-19T16:53:52.287Z,49.53
2018-10-19T16:56:24.901Z,30.25
2018-10-19T16:58:57.180Z,78.15
2018-10-19T17:01:29.447Z,43.17
2018-10-19T17:04:01.627Z,39.50
2018-10-19T17:06:34.198Z,46.08
2018-10-19T17:09:10.431Z,53.47
2018-10-19T17:11:43.490Z,31.42
2018-10-19T17:14:15.976Z,30.67
2018-10-19T17:16:48.490Z,61.37
2018-10-19T17:19:21.224Z,37.42
2018-10-19T17:21:54.749Z,36.47
2018-10-19T17:24:26.980Z,39.83
2018-10-19T17:26:59.488Z,37.43
2018-10-19T17:29:32.055Z,38.50
2018-10-19T17:32:04.342Z,34.83
2018-10-19T17:34:36.598Z,38.73
2018-10-19T17:37:09.468Z,26.70
2018-10-19T17:39:41.846Z,29.27
2018-10-19T17:42:14.170Z,28.80
2018-10-19T17:44:46.576Z,35.30
2018-10-19T17:47:18.982Z,35.97
2018-10-19T17:49:51.450Z,35.07
2018-10-19T17:52:23.785Z,30.90
2018-10-19T17:54:56.455Z,30.37
2018-10-19T17:57:29.157Z,31.97
2018-10-19T18:00:01.702Z,32.77
2018-10-19T18:02:34.018Z,37.93
2018-10-19T18:05:06.854Z,28.20
2018-10-19T18:07:39.620Z,34.13
2018-10-19T18:10:11.831Z,30.87
2018-10-19T18:12:44.454Z,31.77
2018-10-19T18:15:17.053Z,30.63
2018-10-19T18:17:49.945Z,25.13
2018-10-19T18:20:22.669Z,27.20
2018-10-19T18:22:55.485Z,27.80
2018-10-19T18:25:28.140Z,27.40
2018-10-19T18:28:00.752Z,28.10
2018-10-19T18:30:32.840Z,34.10
2018-10-19T18:33:05.440Z,29.63
2018-10-19T18:35:37.857Z,28.10
2018-10-19T18:38:10.001Z,25.00
2018-10-19T18:40:42.569Z,22.87
2018-10-19T18:43:15.078Z,24.70
2018-10-19T18:45:48.587Z,26.77
2018-10-19T18:48:20.949Z,27.10
2018-10-19T18:50:53.492Z,23.37
2018-10-19T18:53:26.194Z,25.00
2018-10-19T18:55:59.025Z,24.63
2018-10-19T18:58:31.781Z,26.50
2018-10-19T19:01:03.896Z,24.00
2018-10-19T19:03:36.266Z,23.60
2018-10-19T19:06:08.325Z,20.57
2018-10-19T19:08:40.742Z,22.57
2018-10-19T19:11:13.392Z,20.80
2018-10-19T19:13:48.564Z,21.03
2018-10-19T19:16:25.487Z,20.23
2018-10-19T19:18:58.108Z,20.27
2018-10-19T19:21:30.585Z,20.40
2018-10-19T19:24:07.562Z,17.97
2018-10-19T19:26:39.918Z,20.20
2018-10-19T19:29:12.702Z,19.33
2018-10-19T19:31:45.170Z,16.90
2018-10-19T19:34:23.075Z,18.97
2018-10-19T19:36:55.831Z,19.17
2018-10-19T19:39:28.308Z,18.40
2018-10-19T19:42:05.449Z,17.47
2018-10-19T19:44:38.164Z,17.13
2018-10-19T19:47:15.381Z,18.80
2018-10-19T19:49:48.302Z,18.23
2018-10-19T19:52:22.945Z,17.97
2018-10-19T19:54:55.318Z,16.33
2018-10-19T19:57:28.081Z,18.67
2018-10-19T20:00:00.287Z,17.53
2018-10-19T20:02:32.698Z,16.67
2018-10-19T20:05:05.495Z,14.70
2018-10-19T20:07:38.071Z,12.37
2018-10-19T20:10:10.523Z,12.03
2018-10-19T20:12:43.112Z,12.00
2018-10-19T20:15:15.853Z,13.70
2018-10-19T20:17:48.256Z,13.33
2018-10-19T20:20:21.013Z,12.30
2018-10-19T20:22:54.332Z,12.27
2018-10-19T20:25:26.881Z,10.50
2018-10-19T20:27:59.262Z,10.83
2018-10-19T20:30:31.661Z,11.33
2018-10-19T20:33:04.130Z,10.70
2018-10-19T20:35:36.546Z,11.57
2018-10-19T20:38:08.896Z,10.23
2018-10-19T20:40:41.371Z,10.43
2018-10-19T20:43:13.616Z,10.80
2018-10-19T20:45:46.006Z,11.00
2018-10-19T20:48:18.182Z,10.80
2018-10-19T20:50:50.655Z,10.40
2018-10-19T20:53:22.811Z,10.10
2018-10-19T20:55:55.451Z,10.10
2018-10-19T20:58:28.013Z,10.33
2018-10-19T21:01:00.582Z,10.10
2018-10-19T21:03:33.134Z,9.90
2018-10-19T21:06:05.657Z,10.57
2018-10-19T21:08:38.101Z,10.27
2018-10-19T21:11:10.622Z,9.00
2018-10-19T21:13:43.123Z,10.07
2018-10-19T21:16:15.757Z,10.53
2018-10-19T21:18:48.347Z,9.60
2018-10-19T21:21:20.877Z,9.13
2018-10-19T21:23:53.293Z,10.80
2018-10-19T21:26:25.720Z,9.90
2018-10-19T21:28:58.312Z,9.90
2018-10-19T21:31:30.792Z,8.87
2018-10-19T21:34:03.365Z,8.70
2018-10-19T21:36:36.112Z,10.30
2018-10-19T21:39:11.541Z,8.60
2018-10-19T21:41:43.969Z,9.63
2018-10-19T21:44:16.663Z,9.27
2018-10-19T21:46:49.322Z,10.13
2018-10-19T21:49:22.804Z,9.77
2018-10-19T21:51:55.340Z,9.00
2018-10-19T21:54:27.850Z,9.70
2018-10-19T21:57:00.234Z,9.37
2018-10-19T21:59:33.280Z,8.20
2018-10-19T22:02:06.241Z,8.40
2018-10-19T22:04:39.369Z,8.30
2018-10-19T22:07:12.071Z,9.00
2018-10-19T22:09:44.397Z,8.37
2018-10-19T22:12:16.787Z,8.40
2018-10-19T22:14:49.116Z,8.90
2018-10-19T22:17:22.131Z,8.77
2018-10-19T22:19:54.960Z,7.80
2018-10-19T22:22:27.326Z,8.90
2018-10-19T22:25:00.088Z,9.77
2018-10-19T22:27:32.593Z,8.83
2018-10-19T22:30:05.058Z,8.80
2018-10-19T22:32:37.831Z,9.30
2018-10-19T22:35:10.333Z,8.67
2018-10-19T22:37:43.353Z,8.90
2018-10-19T22:40:15.779Z,8.90
2018-10-19T22:42:48.434Z,8.90
2018-10-19T22:45:20.591Z,8.73
2018-10-19T22:47:53.397Z,8.30
2018-10-19T22:50:25.938Z,7.70
2018-10-19T22:52:58.413Z,7.70
2018-10-19T22:55:30.752Z,7.43
2018-10-19T22:58:03.352Z,7.20
2018-10-19T23:00:35.794Z,7.20
2018-10-19T23:03:07.894Z,7.20
2018-10-19T23:05:40.254Z,6.90
2018-10-19T23:08:12.980Z,7.67
2018-10-19T23:10:45.794Z,6.67
2018-10-19T23:13:18.466Z,6.87
2018-10-19T23:15:50.842Z,7.93
2018-10-19T23:18:23.258Z,7.90
2018-10-19T23:20:58.335Z,7.50
2018-10-19T23:23:33.174Z,7.40
2018-10-19T23:26:06.263Z,6.83
2018-10-19T23:28:38.764Z,7.40
2018-10-19T23:31:11.853Z,6.53
2018-10-19T23:33:44.708Z,7.87
2018-10-19T23:36:17.152Z,7.40
2018-10-19T23:38:51.473Z,7.30
2018-10-19T23:41:23.627Z,7.43
2018-10-19T23:43:56.403Z,6.90
2018-10-19T23:46:29.338Z,6.57
2018-10-19T23:49:03.967Z,7.80
2018-10-19T23:51:36.290Z,8.30
2018-10-19T23:54:09.274Z,8.50
2018-10-19T23:56:41.771Z,8.30
2018-10-19T23:59:18.288Z,9.00
